Time;durP1;ratioP1;P1;durP2;ratioP2;P2;SDS_P1;SDS_P2;PMS_P1;PMS_P2;Temp;Humidity;BMP_temperature;BMP_pressure;BME280_temperature;BME280_humidity;BME280_pressure;Samples;Min_cycle;Max_cycle;Signal;HPM_P1;HPM_P2
2022/11/13 00:02:28;;;;;;;11.10;5.30;;;;;;;4.33;100.00;99708.84;4987831;28;20247;-55
2022/11/13 00:05:20;;;;;;;10.73;5.17;;;;;;;4.31;100.00;99700.34;5000471;28;20242;-52
2022/11/13 00:08:12;;;;;;;6.67;4.73;;;;;;;4.34;100.00;99697.59;4984042;28;20383;-54
2022/11/13 00:29:59;;;;;;;6.57;4.70;;;;;;;4.52;100.00;99692.31;5242967;23;20237;-60
2022/11/13 00:35:39;;;;;;;7.93;4.60;;;;;;;4.52;100.00;99682.78;5885872;23;20692;-61
2022/11/13 00:38:31;;;;;;;7.37;4.50;;;;;;;4.54;100.00;99683.53;4993816;28;20298;-61
2022/11/13 00:41:24;;;;;;;6.53;4.50;;;;;;;4.55;100.00;99676.63;4980832;28;20616;-61
2022/11/13 00:44:16;;;;;;;8.73;4.87;;;;;;;4.57;100.00;99674.78;4943153;28;20221;-62
2022/11/13 00:47:09;;;;;;;9.50;5.57;;;;;;;4.60;100.00;99669.44;4915459;28;20230;-59
2022/11/13 00:50:26;;;;;;;9.57;5.53;;;;;;;4.57;100.00;99667.03;4750613;29;20235;-60
2022/11/13 00:53:12;;;;;;;7.50;5.20;;;;;;;4.56;100.00;99657.63;4551314;30;20262;-59
2022/11/13 00:55:59;;;;;;;8.50;5.27;;;;;;;4.58;100.00;99656.59;4564157;30;20236;-58
2022/11/13 00:58:44;;;;;;;7.63;4.73;;;;;;;4.54;100.00;99655.09;4550263;31;20381;-59
2022/11/13 01:01:29;;;;;;;8.33;4.60;;;;;;;4.58;100.00;99655.78;4553784;31;20852;-59
2022/11/13 01:04:15;;;;;;;8.63;4.93;;;;;;;4.58;100.00;99651.41;4553584;31;20313;-59
2022/11/13 01:07:01;;;;;;;7.30;4.57;;;;;;;4.61;100.00;99642.69;4553454;31;20251;-59
2022/11/13 01:09:50;;;;;;;6.67;4.37;;;;;;;4.62;100.00;99643.50;4550390;31;20349;-60
2022/11/13 01:12:35;;;;;;;8.00;4.67;;;;;;;4.62;100.00;99640.91;4554877;31;20267;-59
2022/11/13 01:15:21;;;;;;;7.00;4.73;;;;;;;4.60;100.00;99641.00;4536279;31;20397;-60
2022/11/13 01:18:06;;;;;;;7.57;4.60;;;;;;;4.62;100.00;99646.06;4552213;31;20316;-60
2022/11/13 01:21:02;;;;;;;6.27;4.33;;;;;;;4.57;100.00;99643.75;4550493;31;20286;-60
2022/11/13 01:23:47;;;;;;;9.23;5.40;;;;;;;4.55;100.00;99643.84;4553554;31;20751;-59
2022/11/13 01:26:33;;;;;;;9.70;4.90;;;;;;;4.56;100.00;99636.94;4554467;31;20640;-59
2022/11/13 01:29:18;;;;;;;9.67;5.47;;;;;;;4.54;100.00;99637.00;4551739;31;20277;-59
2022/11/13 01:32:03;;;;;;;7.80;5.40;;;;;;;4.54;100.00;99642.16;4554199;31;20308;-59
2022/11/13 01:34:49;;;;;;;8.23;5.63;;;;;;;4.51;100.00;99641.53;4555172;31;20256;-59
2022/11/13 01:37:35;;;;;;;7.20;4.73;;;;;;;4.54;100.00;99629.25;4556862;31;20377;-59
2022/11/13 01:40:20;;;;;;;12.13;6.07;;;;;;;4.53;100.00;99635.34;4555471;31;20264;-59
2022/11/13 01:43:22;;;;;;;10.60;5.20;;;;;;;4.52;100.00;99640.59;4552808;31;20295;-59
2022/11/13 01:46:20;;;;;;;8.30;5.10;;;;;;;4.53;100.00;99634.53;4554500;31;20255;-58
2022/11/13 01:49:18;;;;;;;8.50;5.00;;;;;;;4.50;100.00;99622.59;4545897;31;20400;-58
2022/11/13 01:52:06;;;;;;;10.27;4.80;;;;;;;4.50;100.00;99626.94;4534591;30;1100011;-60
2022/11/13 01:54:55;;;;;;;7.20;4.80;;;;;;;4.47;100.00;99624.53;4741143;29;20286;-59
2022/11/13 01:57:41;;;;;;;7.07;4.97;;;;;;;4.49;100.00;99622.69;4786478;29;20242;-59
2022/11/13 02:00:26;;;;;;;7.73;5.07;;;;;;;4.51;100.00;99613.91;4788117;29;20315;-59
2022/11/13 02:03:11;;;;;;;7.40;5.27;;;;;;;4.51;100.00;99608.72;4785024;29;20243;-58
2022/11/13 02:05:56;;;;;;;7.20;4.73;;;;;;;4.57;100.00;99615.31;4787216;29;20239;-59
2022/11/13 02:08:43;;;;;;;14.03;5.80;;;;;;;4.58;100.00;99611.81;4786502;29;20248;-59
2022/11/13 02:11:30;;;;;;;9.97;5.27;;;;;;;4.61;100.00;99613.38;4792796;29;20287;-59
2022/11/13 02:14:17;;;;;;;13.47;5.30;;;;;;;4.61;100.00;99610.78;4778321;29;20334;-59
2022/11/13 02:17:08;;;;;;;13.80;6.17;;;;;;;4.63;100.00;99596.88;4778885;29;20308;-59
2022/11/13 02:19:57;;;;;;;7.80;5.37;;;;;;;4.60;100.00;99599.63;4785851;29;20297;-58
2022/11/13 02:22:52;;;;;;;7.10;4.40;;;;;;;4.56;100.00;99588.63;4786846;29;20320;-61
2022/11/13 02:25:42;;;;;;;6.87;4.87;;;;;;;4.56;100.00;99578.28;4790369;29;20251;-60
2022/11/13 02:28:26;;;;;;;6.90;4.40;;;;;;;4.56;100.00;99578.28;4788930;29;20377;-59
2022/11/13 02:31:13;;;;;;;6.67;4.27;;;;;;;4.56;100.00;99575.69;4779942;29;20244;-60
2022/11/13 02:34:01;;;;;;;6.90;4.67;;;;;;;4.48;100.00;99577.06;4786507;29;20247;-59
2022/11/13 02:36:46;;;;;;;11.47;4.87;;;;;;;4.48;100.00;99571.91;4788575;29;20376;-60
2022/11/13 02:39:31;;;;;;;6.70;4.57;;;;;;;4.49;100.00;99571.78;4782220;29;20328;-60
2022/11/13 02:42:18;;;;;;;19.20;5.70;;;;;;;4.47;100.00;99562.47;4776630;29;20654;-60
2022/11/13 02:45:04;;;;;;;9.00;5.53;;;;;;;4.50;100.00;99565.69;4777509;29;20254;-59
2022/11/13 02:47:49;;;;;;;11.50;5.80;;;;;;;4.52;100.00;99560.44;4787366;29;20275;-59
2022/11/13 02:50:36;;;;;;;9.03;5.50;;;;;;;4.51;100.00;99567.38;4788369;29;20224;-59
2022/11/13 02:53:21;;;;;;;12.03;5.50;;;;;;;4.52;100.00;99557.88;4806933;29;20261;-60
2022/11/13 02:56:07;;;;;;;8.47;4.80;;;;;;;4.54;100.00;99562.00;4874717;29;20251;-59
2022/11/13 02:58:53;;;;;;;7.07;4.90;;;;;;;4.51;100.00;99553.63;4900764;29;20231;-60
2022/11/13 03:01:39;;;;;;;10.97;4.93;;;;;;;4.51;100.00;99548.44;4897090;29;20263;-58
2022/11/13 03:04:24;;;;;;;8.40;4.70;;;;;;;4.41;100.00;99543.81;4899520;29;20266;-60
2022/11/13 03:07:09;;;;;;;7.20;4.60;;;;;;;4.41;100.00;99537.78;4901613;29;20242;-59
2022/11/13 03:09:56;;;;;;;5.83;4.30;;;;;;;4.42;100.00;99540.31;4862500;29;20242;-59
2022/11/13 03:12:42;;;;;;;6.17;4.27;;;;;;;4.42;100.00;99537.72;4893527;29;20242;-60
2022/11/13 03:15:28;;;;;;;5.70;3.97;;;;;;;4.43;100.00;99528.19;4900062;29;20242;-59
2022/11/13 03:18:13;;;;;;;5.27;3.87;;;;;;;4.48;100.00;99526.19;4896673;29;20748;-60
2022/11/13 03:21:06;;;;;;;5.37;4.07;;;;;;;4.46;100.00;99522.84;4900511;29;20316;-59
2022/11/13 03:23:51;;;;;;;6.40;4.33;;;;;;;4.44;100.00;99519.53;4896488;29;20367;-59
2022/11/13 03:26:36;;;;;;;5.93;4.00;;;;;;;4.48;100.00;99525.34;4900089;29;20350;-60
2022/11/13 03:29:21;;;;;;;5.00;3.87;;;;;;;4.35;100.00;99520.91;4896332;29;20643;-59
2022/11/13 03:32:08;;;;;;;6.73;4.37;;;;;;;4.39;100.00;99524.97;4898830;29;20239;-60
2022/11/13 03:34:53;;;;;;;4.93;3.23;;;;;;;4.36;100.00;99522.56;4872614;29;20990;-59
2022/11/13 03:37:38;;;;;;;6.10;3.77;;;;;;;4.36;100.00;99527.72;4899404;29;20592;-60
2022/11/13 03:40:23;;;;;;;5.27;3.80;;;;;;;4.37;100.00;99526.81;4874908;29;20310;-59
2022/11/13 03:43:08;;;;;;;5.83;3.80;;;;;;;4.38;100.00;99528.47;4882553;29;20744;-59
2022/11/13 03:45:54;;;;;;;3.90;3.13;;;;;;;4.41;100.00;99522.28;4874231;29;20282;-59
2022/11/13 03:48:40;;;;;;;5.57;3.40;;;;;;;4.35;100.00;99527.81;4879346;29;20700;-60
2022/11/13 03:51:25;;;;;;;6.37;4.43;;;;;;;4.33;100.00;99532.22;4879855;29;20255;-59
2022/11/13 03:54:11;;;;;;;7.50;3.90;;;;;;;4.35;100.00;99527.81;4867680;29;20287;-59
2022/11/13 03:56:57;;;;;;;5.37;4.00;;;;;;;4.33;100.00;99522.75;4900193;28;20353;-59
2022/11/13 03:59:42;;;;;;;6.47;4.33;;;;;;;4.40;100.00;99523.19;4899391;29;20380;-60
2022/11/13 04:02:27;;;;;;;5.50;3.53;;;;;;;4.38;100.00;99517.28;4902733;29;20663;-59
2022/11/13 04:05:14;;;;;;;6.20;4.20;;;;;;;4.39;100.00;99514.63;4909253;29;20262;-59
2022/11/13 04:07:59;;;;;;;5.80;3.50;;;;;;;4.30;100.00;99510.00;4901494;29;20290;-59
2022/11/13 04:10:45;;;;;;;4.93;3.83;;;;;;;4.27;100.00;99512.75;4895083;28;20693;-59
2022/11/13 04:13:31;;;;;;;7.43;4.30;;;;;;;4.28;100.00;99506.66;4907450;29;20234;-59
2022/11/13 04:16:18;;;;;;;5.73;3.73;;;;;;;4.28;100.00;99502.31;4903437;29;20238;-59
2022/11/13 04:19:03;;;;;;;5.90;3.90;;;;;;;4.28;100.00;99496.31;4902937;29;20932;-58
2022/11/13 04:21:50;;;;;;;5.87;4.07;;;;;;;4.25;100.00;99491.34;4910080;28;20239;-59
2022/11/13 04:24:35;;;;;;;6.23;3.47;;;;;;;4.24;100.00;99490.47;4913769;28;20632;-59
2022/11/13 04:27:20;;;;;;;5.47;3.43;;;;;;;4.26;100.00;99487.81;4910189;28;20711;-59
2022/11/13 04:30:07;;;;;;;5.93;4.03;;;;;;;4.20;100.00;99491.63;4915335;28;20242;-60
2022/11/13 04:32:52;;;;;;;7.90;3.87;;;;;;;4.19;100.00;99484.78;4911328;29;20235;-61
2022/11/13 04:35:37;;;;;;;5.00;3.60;;;;;;;4.19;100.00;99491.69;4913450;28;20336;-61
2022/11/13 04:38:24;;;;;;;4.83;3.47;;;;;;;4.16;100.00;99477.19;4916899;28;20234;-61
2022/11/13 04:44:16;;;;;;;4.87;3.50;;;;;;;4.17;100.00;99478.03;4912145;28;20286;-61
2022/11/13 04:47:01;;;;;;;4.70;3.73;;;;;;;4.14;100.00;99479.03;4906498;29;20250;-59
2022/11/13 04:49:47;;;;;;;4.20;3.00;;;;;;;4.16;100.00;99484.97;4907814;28;20234;-60
2022/11/13 04:52:32;;;;;;;5.67;3.60;;;;;;;4.12;100.00;99473.13;4939116;28;20619;-61
2022/11/13 04:55:19;;;;;;;3.80;2.97;;;;;;;4.04;100.00;99472.75;4959773;28;20229;-60
2022/11/13 04:58:04;;;;;;;3.47;2.90;;;;;;;3.97;100.00;99467.91;4946563;28;20234;-60
2022/11/13 05:00:49;;;;;;;4.93;3.03;;;;;;;3.99;100.00;99458.34;4946319;28;20232;-60
2022/11/13 05:03:34;;;;;;;3.40;2.50;;;;;;;4.01;100.00;99454.84;4952183;28;20292;-60
2022/11/13 05:06:19;;;;;;;5.47;3.10;;;;;;;3.93;100.00;99450.94;4947358;28;20244;-60
2022/11/13 05:09:04;;;;;;;4.57;3.40;;;;;;;3.95;100.00;99448.25;4945223;28;20423;-60
2022/11/13 05:11:51;;;;;;;4.77;3.27;;;;;;;3.94;100.00;99454.34;4947239;28;20307;-60
2022/11/13 05:14:37;;;;;;;4.73;3.40;;;;;;;3.99;100.00;99442.84;4950768;28;20716;-61
2022/11/13 05:17:23;;;;;;;5.33;3.43;;;;;;;3.87;100.00;99446.13;4945012;28;20233;-60
2022/11/13 05:20:09;;;;;;;3.67;2.47;;;;;;;3.92;100.00;99435.50;4945331;28;20578;-59
2022/11/13 05:22:54;;;;;;;3.67;2.70;;;;;;;3.81;100.00;99439.53;4946400;28;20322;-61
2022/11/13 05:25:39;;;;;;;4.03;2.70;;;;;;;3.76;100.00;99443.31;5144828;23;20229;-60
2022/11/13 05:28:27;;;;;;;4.73;2.97;;;;;;;3.77;100.00;99443.22;4961269;28;21256;-60
2022/11/13 05:31:13;;;;;;;6.60;2.80;;;;;;;3.71;100.00;99440.97;4959862;28;20412;-60
2022/11/13 05:33:58;;;;;;;8.50;2.90;;;;;;;3.65;100.00;99441.34;4955559;28;20245;-59
2022/11/13 05:36:44;;;;;;;5.43;3.17;;;;;;;3.62;100.00;99436.34;4942190;28;20323;-59
2022/11/13 05:39:29;;;;;;;6.00;3.00;;;;;;;3.61;100.00;99432.94;4949545;28;20245;-58
2022/11/13 05:42:14;;;;;;;4.93;3.13;;;;;;;3.61;100.00;99426.94;4948598;28;20237;-60
2022/11/13 05:45:00;;;;;;;5.97;2.90;;;;;;;3.65;100.00;99423.28;4944733;28;20408;-59
2022/11/13 05:47:45;;;;;;;4.47;3.23;;;;;;;3.65;100.00;99429.25;4947958;28;20237;-59
2022/11/13 05:50:31;;;;;;;4.22;3.50;;;;;;;3.66;100.00;99412.84;4946054;28;20459;-58
2022/11/13 05:53:16;;;;;;;5.77;4.50;;;;;;;3.69;100.00;99410.09;4924623;28;20260;-60
2022/11/13 05:56:02;;;;;;;3.87;2.87;;;;;;;3.70;100.00;99408.34;4966058;28;20715;-60
2022/11/13 05:58:48;;;;;;;4.83;3.00;;;;;;;3.60;100.00;99409.78;4981351;28;20231;-60
2022/11/13 06:01:37;;;;;;;5.83;3.87;;;;;;;3.69;100.00;99409.28;4986337;28;20232;-60
2022/11/13 06:04:22;;;;;;;6.60;3.80;;;;;;;3.68;100.00;99418.75;4980861;28;20256;-59
2022/11/13 06:07:07;;;;;;;4.37;3.00;;;;;;;3.65;100.00;99403.44;4980667;28;20236;-59
2022/11/13 06:09:52;;;;;;;5.97;2.80;;;;;;;3.66;100.00;99409.44;4985693;28;20308;-60
2022/11/13 06:12:37;;;;;;;3.77;2.87;;;;;;;3.69;100.00;99402.34;4985542;28;20238;-60
2022/11/13 06:15:22;;;;;;;3.33;2.80;;;;;;;3.61;100.00;99401.94;4986005;28;20282;-60
2022/11/13 06:18:09;;;;;;;3.57;2.63;;;;;;;3.57;100.00;99404.81;4984665;28;20232;-59
2022/11/13 06:20:54;;;;;;;6.17;2.97;;;;;;;3.59;100.00;99401.19;4990778;28;20240;-60
2022/11/13 06:23:40;;;;;;;4.27;3.17;;;;;;;3.62;100.00;99395.88;4985980;28;20235;-59
2022/11/13 06:26:28;;;;;;;5.53;3.27;;;;;;;3.50;100.00;99392.25;4990569;28;20313;-59
2022/11/13 06:29:13;;;;;;;5.33;3.47;;;;;;;3.50;100.00;99383.66;4991625;28;20239;-59
2022/11/13 06:31:58;;;;;;;10.03;3.23;;;;;;;3.54;100.00;99382.56;4988493;28;20946;-60
2022/11/13 06:34:44;;;;;;;13.77;4.07;;;;;;;3.52;100.00;99382.66;4990100;28;20717;-60
2022/11/13 06:37:30;;;;;;;7.40;3.50;;;;;;;3.48;100.00;99375.16;4989931;28;20337;-59
2022/11/13 06:40:15;;;;;;;9.87;3.83;;;;;;;3.39;100.00;99386.84;4984169;28;20279;-60
2022/11/13 06:43:00;;;;;;;5.77;4.43;;;;;;;3.39;100.00;99374.75;4984514;28;20313;-60
2022/11/13 06:45:44;;;;;;;5.20;3.43;;;;;;;3.43;100.00;99370.28;4988126;28;20266;-59
2022/11/13 06:48:30;;;;;;;8.03;4.17;;;;;;;3.53;100.00;99365.41;4982596;28;20243;-60
2022/11/13 06:51:19;;;;;;;5.88;4.65;;;;;;;3.53;100.00;99357.66;4991491;28;20523;-59
2022/11/13 06:54:05;;;;;;;5.10;3.07;;;;;;;3.55;100.00;99363.56;4986367;28;20684;-60
2022/11/13 06:56:50;;;;;;;9.07;3.30;;;;;;;3.52;100.00;99371.50;4964967;28;20240;-59
2022/11/13 06:59:36;;;;;;;5.37;3.30;;;;;;;3.52;100.00;99368.91;4970315;28;20236;-59
2022/11/13 07:02:21;;;;;;;4.40;3.00;;;;;;;3.45;100.00;99372.75;4966794;28;20300;-60
2022/11/13 07:05:06;;;;;;;5.63;2.70;;;;;;;3.53;100.00;99383.47;4966383;28;20315;-59
2022/11/13 07:07:53;;;;;;;30.33;22.07;;;;;;;3.49;100.00;99376.81;4963912;28;20727;-59
2022/11/13 07:10:38;;;;;;;5.63;3.60;;;;;;;3.52;100.00;99384.41;4970711;28;20237;-59
2022/11/13 07:13:24;;;;;;;6.33;2.93;;;;;;;3.47;100.00;99381.25;4969359;28;20241;-59
2022/11/13 07:16:11;;;;;;;8.10;3.60;;;;;;;3.49;100.00;99375.09;4945446;28;20709;-59
2022/11/13 07:18:56;;;;;;;15.10;4.10;;;;;;;3.50;100.00;99374.16;4968136;28;20310;-59
2022/11/13 07:21:41;;;;;;;6.93;3.87;;;;;;;3.57;100.00;99366.09;4970287;28;20371;-61
2022/11/13 07:24:27;;;;;;;6.13;3.53;;;;;;;3.61;100.00;99363.22;4969602;28;20252;-59
2022/11/13 07:27:12;;;;;;;11.23;3.80;;;;;;;3.65;100.00;99366.47;4965335;28;20233;-59
2022/11/13 07:29:57;;;;;;;7.03;3.77;;;;;;;3.73;100.00;99366.84;4958321;28;20260;-62
2022/11/13 07:32:42;;;;;;;7.37;3.53;;;;;;;3.73;100.00;99353.94;4966275;28;20706;-60
2022/11/13 07:35:27;;;;;;;9.00;3.97;;;;;;;3.74;100.00;99360.75;4969292;28;20247;-59
2022/11/13 07:38:13;;;;;;;8.33;6.87;;;;;;;3.79;100.00;99355.34;4962769;28;20721;-59
2022/11/13 07:40:59;;;;;;;8.77;5.73;;;;;;;3.89;100.00;99355.63;4961838;28;20732;-59
2022/11/13 07:43:44;;;;;;;8.00;4.27;;;;;;;3.85;100.00;99354.97;4968412;28;20227;-59
2022/11/13 07:46:30;;;;;;;8.73;4.37;;;;;;;3.90;100.00;99347.78;4973171;28;20324;-60
2022/11/13 07:49:15;;;;;;;5.97;3.70;;;;;;;3.96;100.00;99344.00;4969965;28;20896;-59
2022/11/13 07:52:00;;;;;;;10.47;4.73;;;;;;;3.99;100.00;99344.66;4967936;28;20237;-59
2022/11/13 07:54:45;;;;;;;11.87;7.23;;;;;;;4.06;100.00;99345.13;4967636;28;20860;-60
2022/11/13 07:57:31;;;;;;;6.40;4.10;;;;;;;4.14;100.00;99337.75;4968599;28;20711;-60
2022/11/13 08:00:17;;;;;;;6.43;4.43;;;;;;;4.21;100.00;99339.97;4961137;28;20362;-59
2022/11/13 08:03:06;;;;;;;6.90;5.10;;;;;;;4.24;100.00;99334.59;4949112;28;20443;-59
2022/11/13 08:05:51;;;;;;;7.60;4.70;;;;;;;4.33;100.00;99346.13;4966091;28;20244;-59
2022/11/13 08:08:36;;;;;;;15.23;5.23;;;;;;;4.28;100.00;99336.91;4958466;28;20236;-59
2022/11/13 08:11:22;;;;;;;4.20;3.40;;;;;;;4.33;100.00;99346.97;4941945;28;20718;-58
2022/11/13 08:14:08;;;;;;;16.23;4.93;;;;;;;4.25;100.00;99341.44;4956078;28;20299;-59
2022/11/13 08:16:53;;;;;;;5.40;4.00;;;;;;;4.32;100.00;99342.72;4963178;28;20236;-58
2022/11/13 08:19:38;;;;;;;6.30;4.27;;;;;;;4.35;100.00;99336.53;4965173;28;20241;-59
2022/11/13 08:22:23;;;;;;;6.70;4.33;;;;;;;4.27;100.00;99342.19;4950043;28;20225;-58
2022/11/13 08:25:08;;;;;;;7.70;4.73;;;;;;;4.41;100.00;99338.75;4957990;28;20256;-59
2022/11/13 08:27:54;;;;;;;6.13;4.37;;;;;;;4.50;100.00;99333.00;4949448;28;20237;-60
2022/11/13 08:30:43;;;;;;;6.50;4.23;;;;;;;4.51;100.00;99326.09;4952375;28;20362;-59
2022/11/13 08:33:29;;;;;;;6.40;4.37;;;;;;;4.64;100.00;99336.50;4961128;28;20244;-59
2022/11/13 08:36:14;;;;;;;8.97;4.93;;;;;;;4.77;100.00;99331.41;4963001;28;20235;-59
2022/11/13 08:38:59;;;;;;;10.03;5.23;;;;;;;4.72;100.00;99337.69;4968389;28;20243;-58
2022/11/13 08:41:44;;;;;;;7.80;5.50;;;;;;;4.70;100.00;99336.13;4971461;28;20240;-60
2022/11/13 08:44:29;;;;;;;23.00;6.97;;;;;;;4.76;100.00;99327.97;4965122;28;20357;-59
2022/11/13 08:47:19;;;;;;;7.47;4.93;;;;;;;4.81;100.00;99322.50;4970597;28;20236;-58
2022/11/13 08:50:06;;;;;;;24.00;5.90;;;;;;;4.69;100.00;99316.34;4958342;28;20249;-59
2022/11/13 08:52:54;;;;;;;7.90;5.20;;;;;;;4.71;100.00;99311.91;4966389;28;20240;-58
2022/11/13 08:55:39;;;;;;;7.20;5.07;;;;;;;4.77;100.00;99308.13;4970855;28;20245;-59
2022/11/13 08:58:24;;;;;;;10.37;7.47;;;;;;;4.72;100.00;99301.50;4968796;28;20352;-58
2022/11/13 09:01:09;;;;;;;8.57;5.30;;;;;;;4.66;100.00;99298.44;4956142;28;20245;-59
2022/11/13 09:03:57;;;;;;;5.93;4.27;;;;;;;4.55;100.00;99301.72;4964350;28;20322;-58
2022/11/13 09:06:43;;;;;;;7.33;5.43;;;;;;;4.46;100.00;99297.13;4971055;28;20241;-59
2022/11/13 09:09:28;;;;;;;9.83;4.93;;;;;;;4.53;100.00;99296.63;4968570;28;20296;-57
2022/11/13 09:12:13;;;;;;;7.30;4.93;;;;;;;4.67;100.00;99287.19;4963233;28;20260;-59
2022/11/13 09:15:00;;;;;;;6.87;4.80;;;;;;;4.66;100.00;99293.28;4960831;28;20237;-59
2022/11/13 09:17:45;;;;;;;8.63;4.77;;;;;;;4.69;100.00;99296.50;4963884;28;20236;-58
2022/11/13 09:20:33;;;;;;;6.40;4.17;;;;;;;4.84;100.00;99299.88;4969191;28;20612;-59
2022/11/13 09:23:18;;;;;;;5.90;4.10;;;;;;;4.90;100.00;99292.66;4961369;28;20240;-61
2022/11/13 09:26:03;;;;;;;5.40;3.97;;;;;;;4.95;100.00;99294.00;4965269;28;21051;-59
2022/11/13 09:28:48;;;;;;;8.30;5.33;;;;;;;5.13;100.00;99296.34;4964157;28;20361;-58
2022/11/13 09:31:33;;;;;;;7.40;5.17;;;;;;;5.16;100.00;99296.13;4961025;28;20237;-59
2022/11/13 09:34:18;;;;;;;9.93;4.53;;;;;;;5.31;100.00;99291.72;4965483;28;20724;-60
2022/11/13 09:37:04;;;;;;;6.30;4.47;;;;;;;5.39;100.00;99289.44;4960409;28;20272;-59
2022/11/13 09:39:49;;;;;;;9.10;6.10;;;;;;;5.36;100.00;99291.44;4965243;28;20241;-59
2022/11/13 09:42:39;;;;;;;10.30;6.43;;;;;;;5.45;100.00;99290.81;4962771;28;20237;-61
2022/11/13 09:45:25;;;;;;;9.80;6.00;;;;;;;5.50;100.00;99283.56;4961895;28;20608;-60
2022/11/13 09:48:21;;;;;;;10.53;6.43;;;;;;;5.74;100.00;99277.69;4964351;28;20257;-60
2022/11/13 09:51:18;;;;;;;9.37;6.50;;;;;;;5.67;100.00;99263.50;4960118;28;20613;-59
2022/11/13 09:54:06;;;;;;;9.13;6.10;;;;;;;5.53;100.00;99265.25;4972577;28;20288;-59
2022/11/13 09:57:01;;;;;;;9.47;6.13;;;;;;;5.50;100.00;99262.84;4969372;28;20240;-59
2022/11/13 09:59:52;;;;;;;10.37;6.90;;;;;;;5.60;100.00;99263.91;4968579;28;20369;-60
2022/11/13 10:02:50;;;;;;;11.23;8.00;;;;;;;5.53;100.00;99265.25;4975440;28;20236;-59
2022/11/13 10:05:41;;;;;;;11.67;7.90;;;;;;;5.63;100.00;99268.03;4965167;28;20381;-60
2022/11/13 10:08:30;;;;;;;10.10;7.80;;;;;;;5.69;100.00;99264.22;4965340;28;20237;-59
2022/11/13 10:11:25;;;;;;;11.03;7.37;;;;;;;5.61;100.00;99265.56;4946205;28;20316;-59
2022/11/13 10:14:20;;;;;;;10.60;7.50;;;;;;;5.76;100.00;99265.47;4975921;28;20237;-59
2022/11/13 10:17:15;;;;;;;14.83;8.00;;;;;;;5.84;100.00;99257.97;4969710;28;20237;-59
2022/11/13 10:20:03;;;;;;;14.52;9.10;;;;;;;5.83;100.00;99260.69;4965507;28;20474;-59
2022/11/13 10:22:51;;;;;;;10.63;7.50;;;;;;;5.91;100.00;99258.41;4967322;28;20760;-59
2022/11/13 10:25:38;;;;;;;13.17;8.63;;;;;;;5.93;100.00;99255.69;4968338;28;20240;-59
2022/11/13 10:28:27;;;;;;;13.10;8.53;;;;;;;5.97;100.00;99251.94;4962858;28;20236;-59
2022/11/13 10:31:13;;;;;;;12.37;8.33;;;;;;;6.07;100.00;99252.19;4967328;28;20263;-58
2022/11/13 10:33:59;;;;;;;13.70;8.27;;;;;;;6.20;100.00;99242.63;4963597;28;21229;-59
2022/11/13 10:36:57;;;;;;;17.17;10.80;;;;;;;6.09;100.00;99233.00;4965319;28;20327;-59
2022/11/13 10:39:42;;;;;;;25.87;12.60;;;;;;;5.77;100.00;99220.50;4972192;28;20240;-60
2022/11/13 10:42:34;;;;;;;18.00;12.30;;;;;;;5.86;100.00;99219.00;4977379;28;20234;-60
2022/11/13 10:45:22;;;;;;;31.43;12.57;;;;;;;5.80;100.00;99211.66;4954040;28;20243;-58
2022/11/13 10:48:19;;;;;;;21.47;13.83;;;;;;;5.88;100.00;99202.41;4965627;28;20597;-59
2022/11/13 10:51:07;;;;;;;20.03;12.93;;;;;;;5.92;100.00;99203.03;4967915;28;20232;-59
2022/11/13 10:53:53;;;;;;;25.27;18.07;;;;;;;6.09;100.00;99208.84;4971392;28;20251;-59
2022/11/13 10:56:38;;;;;;;20.00;13.10;;;;;;;6.18;100.00;99198.66;4970277;28;20372;-59
2022/11/13 10:59:25;;;;;;;17.07;10.90;;;;;;;6.22;100.00;99195.84;4968832;28;20311;-59
2022/11/13 11:02:19;;;;;;;16.70;10.77;;;;;;;6.34;100.00;99190.63;4967905;28;21046;-58
2022/11/13 11:05:06;;;;;;;16.20;10.80;;;;;;;6.32;100.00;99187.31;4961517;28;20764;-59
2022/11/13 11:07:53;;;;;;;15.97;10.57;;;;;;;6.41;100.00;99192.75;4966620;28;20726;-60
2022/11/13 11:12:14;;;;;;;16.07;10.03;;;;;;;6.40;100.00;99186.75;4968365;28;20327;-59
2022/11/13 11:13:45;;;;;;;16.80;10.50;;;;;;;6.34;100.00;99184.59;4966785;28;20244;-59
2022/11/13 11:16:31;;;;;;;14.53;10.17;;;;;;;6.29;100.00;99190.13;4967677;28;20739;-59
2022/11/13 11:19:21;;;;;;;15.97;10.50;;;;;;;6.15;100.00;99187.69;4972996;28;20239;-59
2022/11/13 11:22:12;;;;;;;19.57;11.63;;;;;;;6.14;100.00;99178.25;4962167;28;20242;-59
2022/11/13 11:25:04;;;;;;;21.10;12.13;;;;;;;5.95;100.00;99173.47;4964117;28;20320;-59
2022/11/13 11:27:55;;;;;;;20.40;11.63;;;;;;;5.83;100.00;99170.00;4965505;28;20608;-60
2022/11/13 11:30:46;;;;;;;20.47;12.77;;;;;;;5.96;100.00;99164.78;4970206;28;20231;-59
2022/11/13 11:33:35;;;;;;;22.47;12.60;;;;;;;6.11;100.00;99160.31;4941795;28;20333;-59
2022/11/13 11:36:30;;;;;;;28.27;12.97;;;;;;;6.15;100.00;99149.63;4954118;28;20250;-59
2022/11/13 11:39:27;;;;;;;24.73;12.80;;;;;;;6.09;100.00;99154.41;4954299;28;20249;-58
2022/11/13 11:42:22;;;;;;;19.43;11.90;;;;;;;6.16;100.00;99145.28;4960722;28;20232;-60
2022/11/13 11:45:15;;;;;;;19.77;12.40;;;;;;;6.05;100.00;99135.66;4966257;28;20722;-60
2022/11/13 11:48:03;;;;;;;17.17;11.53;;;;;;;6.21;100.00;99130.22;4965405;28;20226;-59
2022/11/13 11:50:54;;;;;;;16.80;11.60;;;;;;;6.30;100.00;99120.94;4955190;28;20732;-59
2022/11/13 11:53:53;;;;;;;17.43;11.63;;;;;;;6.45;100.00;99121.56;4947267;28;20229;-60
2022/11/13 11:56:42;;;;;;;19.00;11.47;;;;;;;6.64;99.82;99114.09;4950975;28;20250;-60
2022/11/13 11:59:41;;;;;;;16.90;11.80;;;;;;;6.47;99.22;99096.34;4949489;28;20285;-60
2022/11/13 12:02:51;;;;;;;18.13;11.90;;;;;;;6.40;100.00;99095.16;4960551;28;20229;-59
2022/11/13 12:05:46;;;;;;;18.33;11.50;;;;;;;6.51;100.00;99082.22;4961092;28;20236;-60
2022/11/13 12:08:39;;;;;;;16.77;11.37;;;;;;;6.67;100.00;99075.91;4968778;28;20787;-60
2022/11/13 12:11:30;;;;;;;17.33;11.30;;;;;;;6.76;100.00;99068.28;4959716;28;20389;-60
2022/11/13 12:14:27;;;;;;;16.93;11.73;;;;;;;6.83;100.00;99073.00;4968095;28;20582;-60
2022/11/13 12:17:40;;;;;;;16.43;11.50;;;;;;;6.99;100.00;99062.28;4955780;28;20705;-60
2022/11/13 12:20:35;;;;;;;17.80;11.43;;;;;;;7.01;100.00;99060.38;4953140;28;20241;-60
2022/11/13 12:23:36;;;;;;;17.83;11.27;;;;;;;7.12;100.00;99055.19;4948711;28;20300;-60
2022/11/13 12:26:30;;;;;;;15.57;10.07;;;;;;;7.24;100.00;99040.44;4964209;28;20705;-61
2022/11/13 12:29:33;;;;;;;17.90;12.13;;;;;;;7.38;100.00;99036.78;4945230;28;20236;-59
2022/11/13 12:32:33;;;;;;;17.67;11.67;;;;;;;7.33;99.56;99036.31;4965966;28;20242;-60
2022/11/13 12:35:20;;;;;;;21.20;12.70;;;;;;;7.26;98.65;99027.34;4953506;28;20241;-60
2022/11/13 12:38:26;;;;;;;19.60;11.80;;;;;;;7.35;99.52;99034.41;4965413;28;20251;-60
2022/11/13 12:41:22;;;;;;;18.37;11.33;;;;;;;7.26;98.37;99035.94;4968780;28;20251;-60
2022/11/13 12:44:22;;;;;;;17.07;11.93;;;;;;;7.39;98.12;99033.25;4966706;28;20256;-59
2022/11/13 12:47:09;;;;;;;17.20;12.00;;;;;;;7.45;98.20;99030.13;4955920;28;20264;-59
2022/11/13 12:50:04;;;;;;;18.40;12.07;;;;;;;7.58;100.00;99031.75;4963479;28;20256;-61
2022/11/13 12:53:01;;;;;;;15.43;10.67;;;;;;;7.73;98.59;99030.53;4961473;28;20239;-60
2022/11/13 12:55:58;;;;;;;17.20;10.77;;;;;;;7.64;97.50;99018.28;4959990;28;20248;-62
2022/11/13 12:58:54;;;;;;;17.00;11.40;;;;;;;7.54;97.34;99011.22;4964210;28;20228;-60
2022/11/13 13:01:47;;;;;;;16.93;10.73;;;;;;;7.54;97.28;99013.00;4956174;28;20280;-60
2022/11/13 13:04:49;;;;;;;17.77;11.33;;;;;;;7.50;97.59;99007.22;4955592;28;20241;-60
2022/11/13 13:07:56;;;;;;;16.63;10.77;;;;;;;7.63;97.54;98996.69;4950031;28;20245;-61
2022/11/13 13:10:54;;;;;;;15.10;10.77;;;;;;;7.80;96.71;98990.13;4959759;28;20388;-61
2022/11/13 13:13:46;;;;;;;19.83;14.17;;;;;;;7.83;96.38;98982.09;4946165;28;20261;-61
2022/11/13 13:16:31;;;;;;;16.87;12.00;;;;;;;7.77;96.99;98989.56;4958304;28;20240;-59
2022/11/13 13:19:27;;;;;;;20.30;12.63;;;;;;;7.75;98.11;98970.66;4948960;28;20237;-59
2022/11/13 13:22:26;;;;;;;16.27;11.43;;;;;;;7.78;95.93;98965.22;4942731;28;20242;-60
2022/11/13 13:25:25;;;;;;;18.00;11.03;;;;;;;7.71;99.51;98954.50;4942970;28;20265;-55
2022/11/13 13:28:20;;;;;;;16.33;10.73;;;;;;;7.62;98.22;98944.84;4959258;28;20236;-62
2022/11/13 13:31:17;;;;;;;14.27;10.13;;;;;;;7.53;99.05;98936.03;4966111;28;20261;-63
2022/11/13 13:34:20;;;;;;;19.60;11.00;;;;;;;7.49;100.00;98938.03;4957468;28;20241;-56